Share

New Delhi Safdarjung, India

New Delhi - GK2 (IDELHINE8) Elev 810 ft | 28.53 °N, 77.24 °E | Change Station

Current weather conditions updated 7 seconds ago

Haze
Haze
92.5 °F
Feels Like 91 °F
N
3.0
Wind Variable Wind from WNW
Gusts 10.0 mph
Sunrise 5:50 AM
Sunset 6:50 PM
Moon Waning Gibbous

Today is forecast to be Warmer than yesterday.

Pressure 29.89 in
Visibility 1.6 miles
Clouds Few 10000 ft
Heat Index 91 °F
Dew Point 56 °F
Humidity 30%
Rainfall 0.00 in
Snow Depth Not available.
UV 5.9 out of 16
Pollen Not available.
Air Quality Not available.
Flu Activity Not available.
METAR VIDP 210700Z 28006KT 2500 HZ FEW100 35/05 Q1012 BECMG 3000

More Conditions Fewer Conditions

Pressure 29.89 in
Visibility 1.6 miles
Clouds Few 10000 ft
Heat Index 91 °F
Dew Point 56 °F
Humidity 30%
Rainfall 0.00 in
Snow Depth Not available.
UV 5.9 out of 16
Pollen Not available.
Air Quality Not available.
Flu Activity Not available.
METAR VIDP 210700Z 28006KT 2500 HZ FEW100 35/05 Q1012 BECMG 3000

More Conditions Fewer Conditions

10-Day Weather Forecast

Almanac

Astronomy

Apr. 21, 2014 Rise Set
Actual Time 5:50 AM IST 6:50 PM IST
Civil Twilight 5:25 AM IST 7:14 PM IST
Nautical Twilight 4:56 AM IST 7:43 PM IST
Astronomical Twilight 4:27 AM IST 8:13 PM IST
Moon No Moon Rise 10:53 AM IST
Length of Visible Light 13h 49m
Length of Day
13h 00m
Tomorrow will be 1m 34s longer.
Waning Gibbous, 62% of the Moon is Illuminated
Today
Waning Gibbous
Apr 22
Last Quarter
Apr 29
New
May 6
First Quarter
May 14
Full

Yesterday's Extremes

Country Highs Country Lows

Community

  • Snowy Robin
    Snowy Robin
  • Sun Pillar and Geese
    Sun Pillar and Geese
  • Showers on the Way
    Showers on the Way
  • Easter Morning Fog
    Easter Morning Fog
  • Easter Dance
    Easter Dance

WunderPhotos

Upload Photos

1,703,572 photos uploaded!

WunderBlogs® & News

Nearby

Snow Depth

Not available.

Coastal Water Temperatures

Place Temperature
No Stations Reporting

Earthquake Activity

City Distance Mag. Time & Date
No recent earthquake activity has been reported nearby.
Minimum magnitude displayed is 2.5.

Nearby Weather Stations

Station Location Temp. Heat Index Dew Point Humidity Wind Precip. Elev Updated Type
New Delhi - GK2, New Delhi 92.5 °F 91 °F 56 °F 30% WNW  at  3.0 mph 0.00 in / hr 810 ft 1:02 PM IST Rapid Fire

Show More Stations Show Fewer Stations

What do you think?

We're not finished. Please let us know what you like, what you don't like, and what you are still missing.